Time;durP1;ratioP1;P1;durP2;ratioP2;P2;SDS_P1;SDS_P2;PMS_P1;PMS_P2;Temp;Humidity;BMP_temperature;BMP_pressure;BME280_temperature;BME280_humidity;BME280_pressure;Samples;Min_cycle;Max_cycle;Signal;HPM_P1;HPM_P2
2021/09/08 00:00:25;;;;;;;27.30;13.55;;;;;;;;;;4946240;28;20039;-64
2021/09/08 00:02:54;;;;;;;33.17;14.93;;;;;;;;;;4939616;28;20051;-64
2021/09/08 00:05:22;;;;;;;27.40;13.13;;;;;;;;;;4929252;28;20035;-64
2021/09/08 00:07:50;;;;;;;29.08;12.93;;;;;;;;;;4938566;28;20062;-63
2021/09/08 00:10:18;;;;;;;25.35;13.90;;;;;;;;;;4912989;28;20141;-64
2021/09/08 00:12:43;;;;;;;30.33;13.90;;;;;;;;;;4940984;28;20046;-63
2021/09/08 00:15:09;;;;;;;30.83;14.27;;;;;;;;;;4922312;28;20566;-64
2021/09/08 00:17:35;;;;;;;29.00;14.15;;;;;;;;;;4939676;28;20136;-64
2021/09/08 00:20:03;;;;;;;31.50;13.38;;;;;;;;;;4937360;28;20026;-65
2021/09/08 00:22:28;;;;;;;29.13;14.25;;;;;;;;;;4928363;28;20046;-64
2021/09/08 00:24:59;;;;;;;29.95;13.50;;;;;;;;;;4929518;28;20051;-64
2021/09/08 00:27:24;;;;;;;28.00;13.88;;;;;;;;;;4936400;28;20467;-65
2021/09/08 00:29:52;;;;;;;32.60;13.82;;;;;;;;;;4908837;28;20070;-63
2021/09/08 00:32:22;;;;;;;33.17;13.95;;;;;;;;;;4937238;28;20146;-65
2021/09/08 00:34:50;;;;;;;26.67;13.10;;;;;;;;;;4952219;28;20700;-64
2021/09/08 00:37:18;;;;;;;40.83;14.25;;;;;;;;;;4946064;28;20066;-65
2021/09/08 00:39:46;;;;;;;25.45;13.27;;;;;;;;;;4952475;28;20047;-64
2021/09/08 00:42:17;;;;;;;27.70;13.30;;;;;;;;;;4953394;28;20066;-64
2021/09/08 00:44:47;;;;;;;26.77;13.43;;;;;;;;;;4921319;28;20054;-63
2021/09/08 00:47:19;;;;;;;31.13;12.63;;;;;;;;;;4935397;28;20031;-65
2021/09/08 00:49:48;;;;;;;31.00;13.57;;;;;;;;;;4937643;28;20205;-64
2021/09/08 00:52:18;;;;;;;34.10;14.45;;;;;;;;;;4938877;28;20635;-63
2021/09/08 00:54:49;;;;;;;30.75;13.25;;;;;;;;;;4952121;28;20186;-64
2021/09/08 00:57:19;;;;;;;29.52;12.23;;;;;;;;;;4936875;28;22002;-64
2021/09/08 00:59:47;;;;;;;23.35;12.52;;;;;;;;;;4940267;28;20035;-64
2021/09/08 01:02:17;;;;;;;26.17;13.57;;;;;;;;;;4940809;28;20106;-64
2021/09/08 01:04:47;;;;;;;26.77;13.18;;;;;;;;;;4936494;28;20341;-65
2021/09/08 01:07:18;;;;;;;31.08;12.05;;;;;;;;;;4936742;28;20023;-64
2021/09/08 01:09:48;;;;;;;26.27;13.07;;;;;;;;;;4937263;28;20034;-64
2021/09/08 01:12:14;;;;;;;27.73;13.13;;;;;;;;;;4936462;28;20113;-64
2021/09/08 01:14:43;;;;;;;28.60;14.23;;;;;;;;;;4936178;28;20098;-64
2021/09/08 01:17:09;;;;;;;30.40;13.68;;;;;;;;;;4935933;28;20053;-64
2021/09/08 01:19:35;;;;;;;31.23;14.23;;;;;;;;;;4938525;28;20039;-63
2021/09/08 01:22:03;;;;;;;26.70;12.75;;;;;;;;;;4950911;28;20446;-64
2021/09/08 01:24:30;;;;;;;25.00;12.60;;;;;;;;;;4923348;28;20035;-65
2021/09/08 01:27:03;;;;;;;30.73;13.73;;;;;;;;;;4906913;28;20086;-64
2021/09/08 01:29:31;;;;;;;23.73;12.40;;;;;;;;;;4937292;28;20066;-64
2021/09/08 01:31:58;;;;;;;25.48;13.23;;;;;;;;;;4937480;28;20506;-65
2021/09/08 01:34:29;;;;;;;27.38;13.70;;;;;;;;;;4952653;28;20113;-64
2021/09/08 01:36:54;;;;;;;28.92;13.82;;;;;;;;;;4937895;28;20045;-63
2021/09/08 01:39:22;;;;;;;31.50;14.90;;;;;;;;;;4937030;28;20031;-63
2021/09/08 01:41:49;;;;;;;28.00;13.38;;;;;;;;;;4951256;28;20131;-63
2021/09/08 01:44:19;;;;;;;26.98;12.70;;;;;;;;;;4938724;28;20031;-64
2021/09/08 01:46:52;;;;;;;24.92;13.18;;;;;;;;;;4937255;28;20068;-64
2021/09/08 01:49:20;;;;;;;26.52;13.30;;;;;;;;;;4952058;28;20122;-64
2021/09/08 01:51:48;;;;;;;26.95;13.20;;;;;;;;;;4935845;28;20067;-64
2021/09/08 01:54:16;;;;;;;31.00;13.45;;;;;;;;;;4935798;28;20039;-64
2021/09/08 01:56:44;;;;;;;30.42;13.50;;;;;;;;;;4949740;28;20031;-64
2021/09/08 01:59:12;;;;;;;26.98;13.40;;;;;;;;;;4935950;28;20043;-63
2021/09/08 02:01:37;;;;;;;30.77;13.82;;;;;;;;;;4938246;28;20035;-65
2021/09/08 02:04:05;;;;;;;34.45;13.82;;;;;;;;;;4936990;28;20066;-62
2021/09/08 02:06:31;;;;;;;28.10;14.05;;;;;;;;;;4953584;28;20043;-64
2021/09/08 02:09:00;;;;;;;30.33;14.75;;;;;;;;;;4921614;28;20045;-65
2021/09/08 02:11:28;;;;;;;35.63;14.27;;;;;;;;;;4954988;28;20082;-64
2021/09/08 02:13:54;;;;;;;31.10;13.70;;;;;;;;;;4940092;28;20037;-64
2021/09/08 02:16:22;;;;;;;29.63;14.85;;;;;;;;;;4947632;28;20134;-64
2021/09/08 02:18:54;;;;;;;33.50;13.45;;;;;;;;;;4938615;28;20031;-64
2021/09/08 02:21:21;;;;;;;30.05;14.70;;;;;;;;;;4938864;28;20068;-65
2021/09/08 02:23:49;;;;;;;28.92;13.43;;;;;;;;;;4939097;28;20042;-64
2021/09/08 02:26:18;;;;;;;33.38;13.98;;;;;;;;;;4940164;28;20031;-64
2021/09/08 02:28:45;;;;;;;28.23;13.60;;;;;;;;;;4944361;28;20047;-65
2021/09/08 02:31:13;;;;;;;27.63;13.73;;;;;;;;;;4923942;28;20035;-63
2021/09/08 02:33:43;;;;;;;25.48;13.32;;;;;;;;;;4941359;28;20059;-65
2021/09/08 02:36:12;;;;;;;30.42;14.30;;;;;;;;;;4938994;28;20043;-65
2021/09/08 02:38:40;;;;;;;26.00;13.18;;;;;;;;;;4920930;28;20120;-64
2021/09/08 02:41:08;;;;;;;33.42;14.00;;;;;;;;;;4939624;28;20102;-64
2021/09/08 02:43:36;;;;;;;25.08;12.60;;;;;;;;;;4929257;28;20039;-64
2021/09/08 02:46:03;;;;;;;27.70;13.32;;;;;;;;;;4938320;28;22019;-65
2021/09/08 02:48:32;;;;;;;29.95;14.55;;;;;;;;;;4939174;28;20530;-64
2021/09/08 02:50:58;;;;;;;25.65;12.85;;;;;;;;;;4939760;28;20088;-64
2021/09/08 02:53:23;;;;;;;30.33;14.13;;;;;;;;;;4939561;28;20716;-65
2021/09/08 02:55:51;;;;;;;29.33;14.20;;;;;;;;;;4937659;28;20510;-64
2021/09/08 02:58:17;;;;;;;32.55;14.43;;;;;;;;;;4939578;28;20122;-64
2021/09/08 03:00:45;;;;;;;25.90;13.32;;;;;;;;;;4921086;28;20101;-64
2021/09/08 03:03:10;;;;;;;28.80;13.63;;;;;;;;;;4940583;28;20097;-65
2021/09/08 03:05:38;;;;;;;31.35;14.18;;;;;;;;;;4954759;28;21031;-64
2021/09/08 03:08:03;;;;;;;32.80;13.80;;;;;;;;;;4937839;28;20042;-64
2021/09/08 03:10:33;;;;;;;32.13;14.23;;;;;;;;;;4941031;28;20031;-64
2021/09/08 03:12:58;;;;;;;28.50;13.35;;;;;;;;;;4937136;28;20050;-65
2021/09/08 03:15:25;;;;;;;27.88;13.82;;;;;;;;;;4938870;28;20045;-64
2021/09/08 03:17:50;;;;;;;27.00;13.15;;;;;;;;;;4910807;28;20031;-64
2021/09/08 03:20:20;;;;;;;30.05;12.98;;;;;;;;;;4955420;28;20167;-65
2021/09/08 03:22:46;;;;;;;33.38;14.43;;;;;;;;;;4906610;28;20038;-64
2021/09/08 03:25:14;;;;;;;30.65;14.13;;;;;;;;;;4939477;28;20027;-65
2021/09/08 03:27:45;;;;;;;27.42;13.48;;;;;;;;;;4953485;28;20886;-64
2021/09/08 03:30:10;;;;;;;27.70;13.23;;;;;;;;;;4939420;28;20046;-64
2021/09/08 03:32:38;;;;;;;30.92;13.93;;;;;;;;;;4937478;28;20127;-64
2021/09/08 03:35:04;;;;;;;32.30;13.60;;;;;;;;;;4937329;28;20070;-65
2021/09/08 03:37:29;;;;;;;28.60;15.48;;;;;;;;;;4954654;28;20535;-65
2021/09/08 03:39:56;;;;;;;32.30;15.23;;;;;;;;;;4941120;28;20036;-66
2021/09/08 03:42:22;;;;;;;34.75;15.40;;;;;;;;;;4928238;28;20059;-64
2021/09/08 03:44:53;;;;;;;34.88;14.60;;;;;;;;;;4940519;28;20031;-63
2021/09/08 03:47:18;;;;;;;28.45;14.25;;;;;;;;;;4953366;28;20048;-63
2021/09/08 03:49:46;;;;;;;28.75;15.00;;;;;;;;;;4939212;28;20471;-65
2021/09/08 03:52:17;;;;;;;32.75;14.43;;;;;;;;;;4924447;28;20035;-64
2021/09/08 03:54:47;;;;;;;31.08;14.93;;;;;;;;;;4923892;28;20027;-65
2021/09/08 03:57:12;;;;;;;30.52;14.60;;;;;;;;;;4939296;28;20035;-64
2021/09/08 03:59:45;;;;;;;34.40;15.93;;;;;;;;;;4938840;28;20037;-64
2021/09/08 04:02:10;;;;;;;27.35;13.68;;;;;;;;;;4935562;28;20043;-63
2021/09/08 04:04:38;;;;;;;27.00;14.45;;;;;;;;;;4937809;28;20163;-64
2021/09/08 04:07:08;;;;;;;29.33;14.70;;;;;;;;;;4937491;28;21010;-65
2021/09/08 04:09:39;;;;;;;33.22;15.18;;;;;;;;;;4937438;28;21089;-64
2021/09/08 04:12:07;;;;;;;31.15;15.27;;;;;;;;;;4937640;28;20887;-65
2021/09/08 04:14:32;;;;;;;31.52;16.25;;;;;;;;;;4908527;28;20605;-64
2021/09/08 04:17:02;;;;;;;33.25;16.27;;;;;;;;;;4921658;28;20039;-64
2021/09/08 04:19:33;;;;;;;36.20;15.48;;;;;;;;;;4937651;28;20035;-65
2021/09/08 04:22:01;;;;;;;32.22;16.45;;;;;;;;;;4924861;28;20035;-65
2021/09/08 04:24:28;;;;;;;36.55;16.77;;;;;;;;;;4937610;28;20093;-64
2021/09/08 04:26:59;;;;;;;35.42;16.67;;;;;;;;;;4936715;28;20110;-65
2021/09/08 04:29:27;;;;;;;33.40;16.80;;;;;;;;;;4942802;28;20065;-65
2021/09/08 04:31:55;;;;;;;32.45;15.90;;;;;;;;;;4919103;28;20031;-63
2021/09/08 04:34:22;;;;;;;37.50;17.50;;;;;;;;;;4937448;28;20047;-64
2021/09/08 04:36:48;;;;;;;34.08;15.98;;;;;;;;;;4936440;28;20062;-65
2021/09/08 04:39:13;;;;;;;40.40;16.75;;;;;;;;;;4911633;28;20031;-66
2021/09/08 04:41:43;;;;;;;43.90;18.35;;;;;;;;;;4927935;28;20031;-64
2021/09/08 04:44:11;;;;;;;38.45;16.77;;;;;;;;;;4923482;28;20082;-64
2021/09/08 04:46:42;;;;;;;32.83;16.08;;;;;;;;;;4923822;28;20119;-64
2021/09/08 04:49:12;;;;;;;30.25;15.38;;;;;;;;;;4936468;28;20046;-65
2021/09/08 04:51:38;;;;;;;32.35;14.98;;;;;;;;;;4936857;28;20037;-65
2021/09/08 04:54:03;;;;;;;32.45;15.88;;;;;;;;;;4923495;28;20621;-65
2021/09/08 04:56:31;;;;;;;33.72;15.55;;;;;;;;;;4920219;28;20035;-65
2021/09/08 04:58:58;;;;;;;37.80;15.15;;;;;;;;;;4938410;28;20027;-65
2021/09/08 05:01:24;;;;;;;30.48;15.32;;;;;;;;;;4952627;28;20026;-65
2021/09/08 05:03:52;;;;;;;33.53;15.02;;;;;;;;;;4951817;28;20431;-64
2021/09/08 05:06:17;;;;;;;32.75;15.40;;;;;;;;;;4921432;28;20067;-64
2021/09/08 05:08:49;;;;;;;29.55;14.30;;;;;;;;;;4927841;28;20035;-65
2021/09/08 05:11:20;;;;;;;32.40;15.35;;;;;;;;;;4939338;28;20043;-64
2021/09/08 05:13:50;;;;;;;29.83;13.85;;;;;;;;;;4935493;28;20146;-64
2021/09/08 05:16:16;;;;;;;32.55;14.52;;;;;;;;;;4937437;28;20134;-64
2021/09/08 05:18:41;;;;;;;31.92;14.07;;;;;;;;;;4921402;28;20138;-65
2021/09/08 05:21:06;;;;;;;37.45;15.65;;;;;;;;;;4952071;28;20053;-64
2021/09/08 05:23:32;;;;;;;29.15;14.40;;;;;;;;;;4953382;28;20038;-64
2021/09/08 05:26:02;;;;;;;42.08;14.82;;;;;;;;;;4937824;28;20109;-64
2021/09/08 05:28:27;;;;;;;26.55;14.52;;;;;;;;;;4921359;28;20054;-64
2021/09/08 05:30:55;;;;;;;26.08;13.35;;;;;;;;;;4942959;28;20046;-64
2021/09/08 05:33:21;;;;;;;33.20;13.75;;;;;;;;;;4936732;28;20054;-65
2021/09/08 05:35:48;;;;;;;26.73;13.05;;;;;;;;;;4936698;28;20039;-64
2021/09/08 05:38:13;;;;;;;29.63;14.10;;;;;;;;;;4935765;28;20513;-63
2021/09/08 05:40:42;;;;;;;30.85;13.43;;;;;;;;;;4938604;28;20039;-64
2021/09/08 05:43:10;;;;;;;28.25;13.85;;;;;;;;;;4955766;28;20030;-64
2021/09/08 05:45:37;;;;;;;24.00;13.23;;;;;;;;;;4956683;28;20023;-64
2021/09/08 05:48:05;;;;;;;25.50;13.65;;;;;;;;;;4914362;28;20749;-63
2021/09/08 05:50:35;;;;;;;29.52;12.80;;;;;;;;;;4942541;28;20081;-64
2021/09/08 05:53:04;;;;;;;31.65;13.48;;;;;;;;;;4956386;28;20039;-64
2021/09/08 05:55:30;;;;;;;23.48;12.48;;;;;;;;;;4938925;28;20042;-64
2021/09/08 05:57:55;;;;;;;29.63;13.63;;;;;;;;;;4946698;28;20039;-64
2021/09/08 06:00:21;;;;;;;24.90;13.00;;;;;;;;;;4940456;28;20066;-64
2021/09/08 06:02:49;;;;;;;27.50;14.05;;;;;;;;;;4928878;28;20456;-63
2021/09/08 06:05:16;;;;;;;27.05;12.32;;;;;;;;;;4942354;28;20046;-64
2021/09/08 06:07:42;;;;;;;22.92;12.43;;;;;;;;;;4939834;28;20168;-63
2021/09/08 06:10:10;;;;;;;27.13;12.18;;;;;;;;;;4955701;28;20050;-64
2021/09/08 06:12:43;;;;;;;29.00;12.32;;;;;;;;;;4923398;28;20042;-63
2021/09/08 06:15:11;;;;;;;23.70;13.10;;;;;;;;;;4926812;28;20038;-64
2021/09/08 06:17:39;;;;;;;27.40;11.57;;;;;;;;;;4940557;28;20129;-63
2021/09/08 06:20:07;;;;;;;27.55;12.38;;;;;;;;;;4916398;28;20106;-64
2021/09/08 06:22:33;;;;;;;22.50;12.57;;;;;;;;;;4947492;28;20624;-64
2021/09/08 06:24:58;;;;;;;25.05;12.30;;;;;;;;;;4932114;28;20031;-64
2021/09/08 06:27:26;;;;;;;17.08;10.07;;;;;;;;;;4937901;28;20583;-63
2021/09/08 06:29:51;;;;;;;22.63;10.20;;;;;;;;;;4957253;28;20414;-66
2021/09/08 06:32:17;;;;;;;21.13;11.13;;;;;;;;;;4939260;28;20042;-65
2021/09/08 06:34:47;;;;;;;24.73;10.48;;;;;;;;;;4908799;28;20055;-64
2021/09/08 06:37:13;;;;;;;23.05;10.82;;;;;;;;;;4924118;28;20051;-65
2021/09/08 06:39:38;;;;;;;22.48;11.90;;;;;;;;;;4922506;28;20162;-64
2021/09/08 06:42:05;;;;;;;23.00;10.73;;;;;;;;;;4943278;28;20050;-65
2021/09/08 06:44:30;;;;;;;31.75;11.32;;;;;;;;;;4954983;28;20418;-65
2021/09/08 06:46:58;;;;;;;22.73;11.18;;;;;;;;;;4930385;28;20050;-64
2021/09/08 06:49:26;;;;;;;22.23;11.27;;;;;;;;;;4941165;28;21050;-64
2021/09/08 06:51:59;;;;;;;24.70;11.00;;;;;;;;;;4937699;28;20169;-64
2021/09/08 06:54:24;;;;;;;21.70;10.50;;;;;;;;;;4941277;28;20038;-66
2021/09/08 06:56:50;;;;;;;17.63;9.65;;;;;;;;;;4928519;28;20049;-66
2021/09/08 06:59:20;;;;;;;23.08;10.48;;;;;;;;;;4939690;28;20035;-64
2021/09/08 07:01:48;;;;;;;22.67;10.02;;;;;;;;;;4955092;28;21026;-64
2021/09/08 07:04:14;;;;;;;20.50;9.75;;;;;;;;;;4955117;28;20058;-64
2021/09/08 07:06:41;;;;;;;23.17;9.52;;;;;;;;;;4939573;28;20042;-63
2021/09/08 07:09:09;;;;;;;15.02;9.57;;;;;;;;;;4939215;28;20503;-63
2021/09/08 07:11:37;;;;;;;17.40;8.85;;;;;;;;;;4939779;28;20035;-64
2021/09/08 07:14:07;;;;;;;16.70;8.82;;;;;;;;;;4921461;28;20088;-64
2021/09/08 07:16:36;;;;;;;17.35;8.80;;;;;;;;;;4937783;28;20037;-62
2021/09/08 07:19:01;;;;;;;17.10;8.70;;;;;;;;;;4937563;28;22075;-63
2021/09/08 07:21:31;;;;;;;20.95;10.00;;;;;;;;;;4941251;28;22142;-63
2021/09/08 07:24:02;;;;;;;16.60;8.90;;;;;;;;;;4939531;28;20041;-64
2021/09/08 07:26:35;;;;;;;14.45;8.85;;;;;;;;;;4939434;28;20034;-64
2021/09/08 07:29:01;;;;;;;16.33;8.27;;;;;;;;;;4940166;28;20035;-65
2021/09/08 07:31:29;;;;;;;20.40;7.93;;;;;;;;;;4936677;28;20023;-65
2021/09/08 07:33:58;;;;;;;14.73;7.90;;;;;;;;;;4937221;28;20090;-65
2021/09/08 07:36:25;;;;;;;17.20;8.18;;;;;;;;;;4937324;28;20113;-63
2021/09/08 07:38:51;;;;;;;12.18;7.07;;;;;;;;;;4936888;28;20099;-64
2021/09/08 07:41:20;;;;;;;11.70;7.45;;;;;;;;;;4939015;28;20043;-65
2021/09/08 07:43:50;;;;;;;13.05;7.57;;;;;;;;;;4936363;28;20046;-65
2021/09/08 07:46:16;;;;;;;15.20;8.50;;;;;;;;;;4953191;28;20123;-65
2021/09/08 07:48:44;;;;;;;14.55;7.25;;;;;;;;;;4923806;28;20026;-65
2021/09/08 07:51:10;;;;;;;18.42;7.70;;;;;;;;;;4936877;28;20043;-65
2021/09/08 07:53:38;;;;;;;15.07;8.02;;;;;;;;;;4938454;28;20665;-65
2021/09/08 07:56:05;;;;;;;13.05;7.45;;;;;;;;;;4937882;28;20046;-65
2021/09/08 07:58:31;;;;;;;14.35;7.18;;;;;;;;;;4937439;28;20131;-66
2021/09/08 08:00:57;;;;;;;16.02;7.60;;;;;;;;;;4941925;28;20034;-66
2021/09/08 08:03:23;;;;;;;13.25;7.28;;;;;;;;;;4922733;28;20526;-65
2021/09/08 08:05:51;;;;;;;12.13;7.00;;;;;;;;;;4943950;28;20042;-64
2021/09/08 08:08:16;;;;;;;15.68;6.50;;;;;;;;;;4938915;28;20043;-64
2021/09/08 08:10:42;;;;;;;10.80;6.68;;;;;;;;;;4938098;28;20035;-65
2021/09/08 08:13:10;;;;;;;11.95;6.40;;;;;;;;;;4935898;28;20039;-65
2021/09/08 08:15:37;;;;;;;13.82;6.47;;;;;;;;;;4952226;28;20039;-64
2021/09/08 08:18:05;;;;;;;13.93;7.20;;;;;;;;;;4949876;28;20049;-65
2021/09/08 08:20:33;;;;;;;11.57;6.10;;;;;;;;;;4941791;28;20131;-65
2021/09/08 08:22:58;;;;;;;9.85;6.40;;;;;;;;;;4952643;28;20045;-64
2021/09/08 08:25:31;;;;;;;10.88;6.20;;;;;;;;;;4937495;28;20032;-65
2021/09/08 08:28:01;;;;;;;10.82;5.65;;;;;;;;;;4933716;28;20045;-65
2021/09/08 08:30:32;;;;;;;10.23;6.07;;;;;;;;;;4937199;28;20031;-65
2021/09/08 08:33:04;;;;;;;10.77;5.57;;;;;;;;;;4951330;28;20065;-66
2021/09/08 08:35:35;;;;;;;9.75;5.90;;;;;;;;;;4950832;28;20145;-65
2021/09/08 08:38:01;;;;;;;10.90;6.32;;;;;;;;;;4937418;28;20030;-65
2021/09/08 08:40:27;;;;;;;10.82;6.30;;;;;;;;;;4950870;28;20109;-65
2021/09/08 08:42:57;;;;;;;8.25;5.93;;;;;;;;;;4936953;28;20402;-66
2021/09/08 08:45:28;;;;;;;8.07;5.55;;;;;;;;;;4937962;28;20180;-66
2021/09/08 08:47:54;;;;;;;8.95;5.40;;;;;;;;;;4935881;28;21030;-66
2021/09/08 08:50:19;;;;;;;9.15;4.85;;;;;;;;;;4921278;28;20035;-66
2021/09/08 08:52:47;;;;;;;8.38;4.90;;;;;;;;;;4936449;28;20114;-65
2021/09/08 08:55:16;;;;;;;9.93;4.93;;;;;;;;;;4924655;28;20039;-66
2021/09/08 08:57:48;;;;;;;9.75;6.13;;;;;;;;;;4935300;28;20027;-66
2021/09/08 09:00:17;;;;;;;15.07;6.00;;;;;;;;;;4952886;28;20023;-65
2021/09/08 09:02:47;;;;;;;10.95;5.90;;;;;;;;;;4953490;28;20518;-64
2021/09/08 09:05:27;;;;;;;9.95;5.93;;;;;;;;;;4940804;28;20058;-64
2021/09/08 09:07:55;;;;;;;7.93;5.45;;;;;;;;;;4953002;28;20143;-64
2021/09/08 09:10:23;;;;;;;8.70;5.53;;;;;;;;;;4929078;28;20035;-65
2021/09/08 09:12:48;;;;;;;9.02;5.18;;;;;;;;;;4950624;28;20042;-64
2021/09/08 09:15:15;;;;;;;8.38;5.25;;;;;;;;;;4934680;28;20125;-64
2021/09/08 09:17:41;;;;;;;15.48;6.60;;;;;;;;;;4936855;28;20094;-64
2021/09/08 09:20:18;;;;;;;9.63;4.97;;;;;;;;;;4952648;28;20039;-65
2021/09/08 09:22:44;;;;;;;9.38;4.80;;;;;;;;;;4936670;28;20062;-65
2021/09/08 09:25:22;;;;;;;9.90;4.97;;;;;;;;;;4936097;28;22055;-65
2021/09/08 09:27:48;;;;;;;10.73;4.85;;;;;;;;;;4934892;28;20030;-65
2021/09/08 09:30:17;;;;;;;9.48;4.32;;;;;;;;;;4921607;28;20102;-64
2021/09/08 09:32:44;;;;;;;11.80;4.97;;;;;;;;;;4939071;28;20030;-64
2021/09/08 09:35:11;;;;;;;6.30;4.65;;;;;;;;;;4954184;28;20256;-64
2021/09/08 09:37:52;;;;;;;10.25;5.25;;;;;;;;;;4936359;28;20050;-64
2021/09/08 09:40:21;;;;;;;6.25;4.38;;;;;;;;;;4940194;28;20035;-64
2021/09/08 09:42:49;;;;;;;9.43;4.05;;;;;;;;;;4936924;28;21572;-64
2021/09/08 09:45:16;;;;;;;8.50;4.35;;;;;;;;;;4944475;28;20062;-65
2021/09/08 09:47:44;;;;;;;8.90;4.95;;;;;;;;;;4950311;28;20134;-65
2021/09/08 09:50:14;;;;;;;8.75;4.32;;;;;;;;;;4925884;28;20158;-64
2021/09/08 09:52:40;;;;;;;6.60;4.70;;;;;;;;;;4943075;28;20031;-65
2021/09/08 09:55:08;;;;;;;8.55;4.95;;;;;;;;;;4935224;28;20054;-65
2021/09/08 09:57:36;;;;;;;6.45;3.67;;;;;;;;;;4951369;28;20066;-65
2021/09/08 10:00:06;;;;;;;5.25;3.65;;;;;;;;;;4920876;28;20177;-65
2021/09/08 10:02:32;;;;;;;5.97;4.07;;;;;;;;;;4943423;28;20671;-64
2021/09/08 10:05:01;;;;;;;7.53;4.22;;;;;;;;;;4935779;28;20039;-64
2021/09/08 10:07:27;;;;;;;4.05;3.33;;;;;;;;;;4938024;28;20046;-64
2021/09/08 10:09:58;;;;;;;7.30;3.90;;;;;;;;;;4938475;28;20129;-64
2021/09/08 10:12:40;;;;;;;6.15;3.80;;;;;;;;;;4935842;28;20027;-65
2021/09/08 10:15:12;;;;;;;8.57;4.05;;;;;;;;;;4935553;28;20035;-64
2021/09/08 10:17:43;;;;;;;8.50;3.63;;;;;;;;;;4935647;28;20118;-64
2021/09/08 10:20:13;;;;;;;6.93;3.92;;;;;;;;;;4937210;28;20485;-64
2021/09/08 10:22:43;;;;;;;6.53;3.97;;;;;;;;;;4934651;28;20031;-65
2021/09/08 10:25:11;;;;;;;6.50;3.50;;;;;;;;;;4937947;28;20035;-65
2021/09/08 10:27:38;;;;;;;5.65;3.83;;;;;;;;;;4946330;28;21212;-65
2021/09/08 10:30:04;;;;;;;4.05;3.13;;;;;;;;;;4948127;28;20553;-65
2021/09/08 10:32:35;;;;;;;5.70;3.50;;;;;;;;;;4930906;28;21142;-64
2021/09/08 10:35:09;;;;;;;8.02;3.85;;;;;;;;;;4940371;28;20035;-65
2021/09/08 10:37:39;;;;;;;5.72;3.63;;;;;;;;;;4953579;28;20031;-64
2021/09/08 10:40:06;;;;;;;6.03;3.17;;;;;;;;;;4939371;28;20042;-65
2021/09/08 10:42:46;;;;;;;5.90;3.47;;;;;;;;;;4939063;28;20457;-64
2021/09/08 10:45:19;;;;;;;8.07;4.35;;;;;;;;;;4939565;28;20624;-65
2021/09/08 10:47:46;;;;;;;;;;;;;;;;;;4941095;28;20027;-64
2021/09/08 10:50:14;;;;;;;5.45;3.58;;;;;;;;;;4954001;28;19928;-64
2021/09/08 10:52:45;;;;;;;3.05;2.42;;;;;;;;;;4955230;28;20085;-65
2021/09/08 10:55:10;;;;;;;6.85;2.90;;;;;;;;;;4938449;28;20086;-65
2021/09/08 10:57:44;;;;;;;4.55;3.42;;;;;;;;;;4953602;28;20085;-63
2021/09/08 11:00:12;;;;;;;5.78;3.30;;;;;;;;;;4939029;28;20977;-65
2021/09/08 11:02:40;;;;;;;3.88;2.97;;;;;;;;;;4922331;28;20051;-65
2021/09/08 11:05:12;;;;;;;5.63;2.85;;;;;;;;;;4939643;28;20121;-64
2021/09/08 11:07:41;;;;;;;5.82;3.38;;;;;;;;;;4939548;28;20041;-64
2021/09/08 11:10:11;;;;;;;5.00;3.42;;;;;;;;;;4955020;28;20091;-65
2021/09/08 11:12:48;;;;;;;10.05;4.05;;;;;;;;;;4938517;28;20035;-62
2021/09/08 11:15:19;;;;;;;3.63;3.15;;;;;;;;;;4936769;28;20122;-64
2021/09/08 11:17:51;;;;;;;5.90;3.13;;;;;;;;;;4937034;28;20038;-64
2021/09/08 11:20:19;;;;;;;7.75;3.20;;;;;;;;;;4955228;28;20475;-64
2021/09/08 11:23:04;;;;;;;3.13;2.80;;;;;;;;;;4939892;28;22166;-65
2021/09/08 11:25:34;;;;;;;3.17;2.63;;;;;;;;;;4942607;28;20030;-64
2021/09/08 11:28:00;;;;;;;3.70;3.00;;;;;;;;;;4938617;28;20027;-66
2021/09/08 11:30:34;;;;;;;3.22;2.60;;;;;;;;;;4940185;28;20502;-64
2021/09/08 11:33:09;;;;;;;4.03;2.80;;;;;;;;;;4938964;28;20450;-64
2021/09/08 11:35:50;;;;;;;8.20;2.58;;;;;;;;;;4941068;28;20960;-64
2021/09/08 11:38:24;;;;;;;4.15;2.85;;;;;;;;;;4939997;28;22132;-64
2021/09/08 11:40:53;;;;;;;3.85;2.60;;;;;;;;;;4929827;28;20051;-63
2021/09/08 11:43:34;;;;;;;3.72;3.00;;;;;;;;;;4939455;28;20034;-64
2021/09/08 11:46:13;;;;;;;3.88;3.10;;;;;;;;;;4937206;28;20855;-64
2021/09/08 11:48:42;;;;;;;8.98;3.28;;;;;;;;;;4938668;28;20035;-65
2021/09/08 11:51:08;;;;;;;5.30;2.42;;;;;;;;;;4938336;28;20042;-63
2021/09/08 11:53:36;;;;;;;4.13;2.72;;;;;;;;;;4939396;28;20030;-63
2021/09/08 11:56:06;;;;;;;5.80;3.25;;;;;;;;;;4938067;28;20047;-62
2021/09/08 11:58:32;;;;;;;5.00;2.60;;;;;;;;;;4938802;28;20031;-64
2021/09/08 12:01:08;;;;;;;7.18;2.50;;;;;;;;;;4940236;28;20062;-64
2021/09/08 12:03:41;;;;;;;10.25;3.45;;;;;;;;;;4954204;28;20039;-63
2021/09/08 12:06:08;;;;;;;3.90;2.40;;;;;;;;;;4937533;28;20030;-62
2021/09/08 12:08:33;;;;;;;6.95;2.75;;;;;;;;;;4938614;28;20031;-63
2021/09/08 12:11:01;;;;;;;6.15;2.65;;;;;;;;;;4937826;28;20027;-63
2021/09/08 12:13:29;;;;;;;3.72;2.70;;;;;;;;;;4939135;28;20039;-63
2021/09/08 12:15:55;;;;;;;4.60;2.50;;;;;;;;;;4953248;28;20628;-64
2021/09/08 12:18:23;;;;;;;4.78;2.78;;;;;;;;;;4935407;28;20656;-62
2021/09/08 12:20:49;;;;;;;3.30;2.65;;;;;;;;;;4943125;28;20070;-63
2021/09/08 12:23:25;;;;;;;4.35;2.38;;;;;;;;;;4953198;28;20077;-63
2021/09/08 12:26:17;;;;;;;8.07;2.85;;;;;;;;;;4945150;28;20490;-63
2021/09/08 12:29:02;;;;;;;3.28;2.53;;;;;;;;;;4933395;28;20038;-62
2021/09/08 12:31:28;;;;;;;3.63;2.72;;;;;;;;;;4938914;28;20067;-64
2021/09/08 12:33:57;;;;;;;3.00;2.70;;;;;;;;;;4905625;28;20221;-64
2021/09/08 12:36:25;;;;;;;4.55;2.60;;;;;;;;;;4938594;28;20030;-64
2021/09/08 12:38:54;;;;;;;2.45;2.15;;;;;;;;;;4940009;28;20031;-64
2021/09/08 12:41:19;;;;;;;4.78;2.83;;;;;;;;;;4952561;28;20128;-64
2021/09/08 12:43:58;;;;;;;5.53;2.67;;;;;;;;;;4954075;28;20035;-63
2021/09/08 12:46:37;;;;;;;5.53;2.90;;;;;;;;;;4937029;28;20151;-64
2021/09/08 12:49:09;;;;;;;4.18;2.83;;;;;;;;;;4942733;28;20039;-64
2021/09/08 12:51:34;;;;;;;5.82;2.85;;;;;;;;;;4952979;28;20031;-64
2021/09/08 12:53:59;;;;;;;3.70;2.85;;;;;;;;;;4920734;28;20035;-64
2021/09/08 12:56:27;;;;;;;3.70;2.47;;;;;;;;;;4953039;28;20435;-63
2021/09/08 12:58:58;;;;;;;2.67;2.05;;;;;;;;;;4935956;28;20089;-64
2021/09/08 13:01:27;;;;;;;2.22;1.95;;;;;;;;;;4937466;28;21135;-64
2021/09/08 13:03:53;;;;;;;2.78;2.20;;;;;;;;;;4919145;28;20073;-65
2021/09/08 13:06:23;;;;;;;2.88;2.50;;;;;;;;;;4952716;28;20800;-64
2021/09/08 13:08:53;;;;;;;4.95;3.10;;;;;;;;;;4939156;28;20019;-64
2021/09/08 13:11:24;;;;;;;4.53;2.28;;;;;;;;;;4953263;28;20173;-61
2021/09/08 13:13:56;;;;;;;9.75;2.20;;;;;;;;;;4923538;28;20039;-63
2021/09/08 13:16:22;;;;;;;4.50;2.10;;;;;;;;;;4936669;28;20129;-62
2021/09/08 13:18:50;;;;;;;2.38;1.90;;;;;;;;;;4951569;28;20053;-62
2021/09/08 13:21:15;;;;;;;5.13;2.20;;;;;;;;;;4928151;28;20062;-62
2021/09/08 13:23:41;;;;;;;4.70;1.50;;;;;;;;;;4919453;28;20039;-63
2021/09/08 13:26:10;;;;;;;3.22;1.98;;;;;;;;;;4937660;28;20073;-64
2021/09/08 13:28:37;;;;;;;1.73;1.63;;;;;;;;;;4917925;28;20105;-63
2021/09/08 13:31:08;;;;;;;3.08;1.80;;;;;;;;;;4929096;28;20088;-64
2021/09/08 13:33:36;;;;;;;3.92;1.80;;;;;;;;;;4938320;28;20055;-63
2021/09/08 13:36:04;;;;;;;6.85;1.77;;;;;;;;;;4905437;28;20154;-62
2021/09/08 13:38:33;;;;;;;3.42;1.73;;;;;;;;;;4923877;28;20129;-62
2021/09/08 13:40:58;;;;;;;3.03;1.88;;;;;;;;;;4936362;28;20033;-63
2021/09/08 13:43:23;;;;;;;3.03;1.65;;;;;;;;;;4908414;28;20039;-62
2021/09/08 13:45:52;;;;;;;1.83;1.65;;;;;;;;;;4909821;28;20107;-63
2021/09/08 13:48:23;;;;;;;5.18;1.80;;;;;;;;;;4943876;28;20027;-62
2021/09/08 13:50:49;;;;;;;4.20;1.90;;;;;;;;;;4921710;28;20058;-63
2021/09/08 13:53:17;;;;;;;2.50;1.80;;;;;;;;;;4934517;28;20205;-64
2021/09/08 13:55:45;;;;;;;4.25;1.90;;;;;;;;;;4935838;28;21548;-61
2021/09/08 13:58:12;;;;;;;4.22;2.33;;;;;;;;;;4906795;28;20043;-64
2021/09/08 14:00:38;;;;;;;2.83;1.98;;;;;;;;;;4936013;28;20042;-63
2021/09/08 14:03:08;;;;;;;6.75;2.17;;;;;;;;;;4938769;28;20042;-62
2021/09/08 14:05:33;;;;;;;2.47;1.83;;;;;;;;;;4936056;28;20502;-63
2021/09/08 14:08:01;;;;;;;1.98;1.80;;;;;;;;;;4910933;28;20034;-62
2021/09/08 14:10:28;;;;;;;2.00;1.80;;;;;;;;;;4930440;28;20483;-62
2021/09/08 14:12:54;;;;;;;2.60;1.80;;;;;;;;;;4937680;28;20035;-63
2021/09/08 14:15:19;;;;;;;3.67;1.83;;;;;;;;;;4944733;28;20041;-63
2021/09/08 14:17:46;;;;;;;3.10;1.85;;;;;;;;;;4953009;28;20458;-62
2021/09/08 14:20:12;;;;;;;2.55;2.03;;;;;;;;;;4922044;28;20587;-63
2021/09/08 14:22:40;;;;;;;2.38;1.80;;;;;;;;;;4938720;28;20026;-63
2021/09/08 14:25:06;;;;;;;2.30;1.83;;;;;;;;;;4925456;28;20042;-63
2021/09/08 14:27:35;;;;;;;4.28;1.95;;;;;;;;;;4940256;28;20039;-62
2021/09/08 14:30:03;;;;;;;1.65;1.55;;;;;;;;;;4931152;28;20042;-63
2021/09/08 14:32:31;;;;;;;4.30;1.52;;;;;;;;;;4921726;28;20031;-63
2021/09/08 14:34:56;;;;;;;3.20;1.83;;;;;;;;;;4941975;28;20047;-64